Time;durP1;ratioP1;P1;durP2;ratioP2;P2;SDS_P1;SDS_P2;PMS_P1;PMS_P2;Temp;Humidity;BMP_temperature;BMP_pressure;BME280_temperature;BME280_humidity;BME280_pressure;Samples;Min_cycle;Max_cycle;Signal;HPM_P1;HPM_P2
2020/12/14 00:01:35;;;;;;;9.10;1.52;;;6.90;90.50;;;;;;5031894;28;20544;-90
2020/12/14 00:04:01;;;;;;;9.50;1.73;;;6.90;90.50;;;;;;5026157;28;20022;-90
2020/12/14 00:06:26;;;;;;;6.95;1.40;;;6.90;90.50;;;;;;5028341;28;20037;-90
2020/12/14 00:08:52;;;;;;;6.53;1.70;;;6.90;90.40;;;;;;5028984;28;20033;-91
2020/12/14 00:11:17;;;;;;;11.65;1.50;;;6.90;90.40;;;;;;5028222;28;20424;-91
2020/12/14 00:13:43;;;;;;;3.13;1.10;;;7.00;90.40;;;;;;5027490;28;20379;-90
2020/12/14 00:16:09;;;;;;;3.47;1.33;;;7.00;90.40;;;;;;5022673;28;20622;-90
2020/12/14 00:18:35;;;;;;;5.25;1.35;;;7.00;90.40;;;;;;5030385;28;20037;-91
2020/12/14 00:21:00;;;;;;;8.70;1.33;;;7.00;90.40;;;;;;5033216;28;20029;-91
2020/12/14 00:23:26;;;;;;;5.88;1.27;;;7.00;90.40;;;;;;5023064;28;20049;-89
2020/12/14 00:25:51;;;;;;;8.82;1.50;;;7.00;90.30;;;;;;5030706;28;20387;-90
2020/12/14 00:28:16;;;;;;;7.75;1.55;;;7.00;90.20;;;;;;5019392;28;20037;-91
2020/12/14 00:30:42;;;;;;;8.73;1.88;;;7.10;90.20;;;;;;5026210;28;20477;-91
2020/12/14 00:33:07;;;;;;;7.05;1.08;;;7.10;90.20;;;;;;5029657;28;20029;-91
2020/12/14 00:35:33;;;;;;;8.02;1.30;;;7.10;90.10;;;;;;5022403;28;20025;-91
2020/12/14 00:37:58;;;;;;;11.75;1.70;;;7.10;90.10;;;;;;5024918;28;20029;-91
2020/12/14 00:40:24;;;;;;;3.53;1.10;;;7.10;90.00;;;;;;5029040;28;20072;-90
2020/12/14 00:42:49;;;;;;;8.85;1.55;;;7.10;90.10;;;;;;5030914;28;20049;-89
2020/12/14 00:45:15;;;;;;;6.95;1.40;;;7.10;90.00;;;;;;5030487;28;20041;-90
2020/12/14 00:47:41;;;;;;;8.18;1.25;;;7.10;90.10;;;;;;5025328;28;20052;-92
2020/12/14 00:50:07;;;;;;;4.78;0.85;;;7.10;90.00;;;;;;5024400;28;20033;-91
2020/12/14 00:52:32;;;;;;;6.65;1.00;;;7.20;89.90;;;;;;5032077;28;20022;-91
2020/12/14 00:54:58;;;;;;;8.60;1.20;;;7.10;89.90;;;;;;5026069;28;20473;-91
2020/12/14 00:57:23;;;;;;;9.60;1.52;;;7.10;89.80;;;;;;5023446;28;20078;-91
2020/12/14 00:59:49;;;;;;;11.18;1.30;;;7.10;89.90;;;;;;5031299;28;20128;-91
2020/12/14 01:02:14;;;;;;;4.97;1.30;;;7.20;90.00;;;;;;5027334;28;20030;-91
2020/12/14 01:04:40;;;;;;;6.50;1.00;;;7.20;90.00;;;;;;5021037;28;20776;-90
2020/12/14 01:07:05;;;;;;;3.80;0.95;;;7.20;90.00;;;;;;5025540;28;20038;-91
2020/12/14 01:09:31;;;;;;;5.32;1.33;;;7.20;90.00;;;;;;5033521;28;20029;-91
2020/12/14 01:11:56;;;;;;;6.07;1.13;;;7.20;90.00;;;;;;5022245;28;20104;-91
2020/12/14 01:14:22;;;;;;;5.55;1.73;;;7.20;90.00;;;;;;5027408;28;20095;-89
2020/12/14 01:16:47;;;;;;;7.38;1.10;;;7.20;90.00;;;;;;5027786;28;20113;-90
2020/12/14 01:19:13;;;;;;;10.48;0.95;;;7.30;90.10;;;;;;5021281;28;20059;-90
2020/12/14 01:21:38;;;;;;;5.55;1.00;;;7.30;90.10;;;;;;5024978;28;20026;-89
2020/12/14 01:24:04;;;;;;;7.50;1.52;;;7.30;90.10;;;;;;5023967;28;20025;-89
2020/12/14 01:26:31;;;;;;;3.88;1.15;;;7.30;90.10;;;;;;5027789;28;20033;-89
2020/12/14 01:28:56;;;;;;;4.47;1.00;;;7.30;90.00;;;;;;5028102;28;20477;-89
2020/12/14 01:31:23;;;;;;;6.45;1.52;;;7.30;90.10;;;;;;5023857;28;20036;-89
2020/12/14 01:33:49;;;;;;;3.75;1.02;;;7.30;90.00;;;;;;5028300;28;20103;-89
2020/12/14 01:36:14;;;;;;;6.00;0.90;;;7.30;90.10;;;;;;5018313;28;20054;-90
2020/12/14 01:38:40;;;;;;;5.25;0.90;;;7.30;90.10;;;;;;5028033;28;20022;-89
2020/12/14 01:41:05;;;;;;;3.63;0.90;;;7.40;90.10;;;;;;5023962;28;20040;-90
2020/12/14 01:43:31;;;;;;;12.65;1.17;;;7.40;90.00;;;;;;5021936;28;20046;-90
2020/12/14 01:45:56;;;;;;;5.90;0.90;;;7.40;90.00;;;;;;5026980;28;20034;-90
2020/12/14 01:48:24;;;;;;;9.57;0.95;;;7.40;90.00;;;;;;5021074;28;20056;-88
2020/12/14 01:50:50;;;;;;;10.02;1.45;;;7.40;90.30;;;;;;5022095;28;20391;-89
2020/12/14 01:53:18;;;;;;;4.03;0.73;;;7.40;90.00;;;;;;5030345;28;20029;-90
2020/12/14 01:55:45;;;;;;;5.82;0.85;;;7.50;90.00;;;;;;5022579;28;20029;-91
2020/12/14 01:58:10;;;;;;;4.65;1.33;;;7.50;90.00;;;;;;5025441;28;20025;-90
2020/12/14 02:00:36;;;;;;;5.88;1.15;;;7.50;90.00;;;;;;5029161;28;20052;-91
2020/12/14 02:03:02;;;;;;;5.30;0.75;;;7.60;90.00;;;;;;5029302;28;20026;-90
2020/12/14 02:05:28;;;;;;;6.88;0.70;;;7.60;89.80;;;;;;5016597;28;20037;-91
2020/12/14 02:07:53;;;;;;;5.93;0.93;;;7.60;89.70;;;;;;5027820;28;20021;-91
2020/12/14 02:10:19;;;;;;;3.90;0.80;;;7.60;89.70;;;;;;5027254;28;20091;-91
2020/12/14 02:12:45;;;;;;;3.40;0.63;;;7.70;89.70;;;;;;5028348;28;20525;-91
2020/12/14 02:15:10;;;;;;;5.65;0.65;;;7.70;89.70;;;;;;5030518;28;20039;-91
2020/12/14 02:17:36;;;;;;;3.47;0.75;;;7.70;89.60;;;;;;5025095;28;20492;-90
2020/12/14 02:20:03;;;;;;;3.85;0.60;;;7.70;89.50;;;;;;5024202;28;20042;-91
2020/12/14 02:22:28;;;;;;;2.70;0.55;;;7.80;89.60;;;;;;5027485;28;20025;-91
2020/12/14 02:24:55;;;;;;;4.45;0.60;;;7.80;89.50;;;;;;5020131;28;20045;-90
2020/12/14 02:27:21;;;;;;;5.22;0.95;;;7.80;89.50;;;;;;5022629;28;20022;-90
2020/12/14 02:29:47;;;;;;;4.78;0.60;;;7.80;89.60;;;;;;5022351;28;20109;-90
2020/12/14 02:32:14;;;;;;;4.65;0.50;;;7.80;89.70;;;;;;5016953;28;20026;-90
2020/12/14 02:34:41;;;;;;;3.47;0.77;;;7.80;89.70;;;;;;5020681;28;20033;-91
2020/12/14 02:37:10;;;;;;;2.55;0.52;;;7.80;89.70;;;;;;5032291;28;20096;-90
2020/12/14 02:39:37;;;;;;;5.80;0.60;;;7.80;89.70;;;;;;5027704;28;20037;-90
2020/12/14 02:42:08;;;;;;;3.65;1.27;;;7.90;89.80;;;;;;5025730;28;20490;-90
2020/12/14 02:44:34;;;;;;;4.05;0.73;;;7.80;89.90;;;;;;5022749;28;20042;-90
2020/12/14 02:46:59;;;;;;;4.53;0.68;;;7.90;90.10;;;;;;5024387;28;20028;-90
2020/12/14 02:49:25;;;;;;;4.25;0.80;;;7.80;90.20;;;;;;5028509;28;20378;-91
2020/12/14 02:51:50;;;;;;;4.10;0.70;;;7.80;90.30;;;;;;5020021;28;20043;-90
2020/12/14 02:54:16;;;;;;;9.13;1.23;;;7.80;90.50;;;;;;5027971;28;20482;-89
2020/12/14 02:56:43;;;;;;;4.90;0.82;;;7.80;90.60;;;;;;5024373;28;20044;-91
2020/12/14 02:59:10;;;;;;;4.97;0.80;;;7.70;90.60;;;;;;5025357;28;20083;-91
2020/12/14 03:01:36;;;;;;;2.15;0.68;;;7.70;90.70;;;;;;5025496;28;20057;-91
2020/12/14 03:04:01;;;;;;;7.25;0.95;;;7.70;90.80;;;;;;5027778;28;20018;-91
2020/12/14 03:06:27;;;;;;;4.47;0.70;;;7.70;90.90;;;;;;5023120;28;20071;-91
2020/12/14 03:08:52;;;;;;;3.45;1.00;;;7.70;91.00;;;;;;5020740;28;20084;-91
2020/12/14 03:11:18;;;;;;;3.75;0.73;;;7.70;91.30;;;;;;5025115;28;20026;-92
2020/12/14 03:13:43;;;;;;;3.05;0.75;;;7.70;91.50;;;;;;5017731;28;20030;-91
2020/12/14 03:16:08;;;;;;;4.93;1.20;;;7.60;91.70;;;;;;5018665;28;20053;-91
2020/12/14 03:18:34;;;;;;;4.75;0.70;;;7.60;92.00;;;;;;5025720;28;20032;-91
2020/12/14 03:20:59;;;;;;;8.13;0.90;;;7.50;92.20;;;;;;5027193;28;20038;-91
2020/12/14 03:23:27;;;;;;;5.25;0.90;;;7.50;92.50;;;;;;5028032;28;20025;-91
2020/12/14 03:25:52;;;;;;;11.68;1.10;;;7.50;92.70;;;;;;5027715;28;20541;-92
2020/12/14 03:28:18;;;;;;;4.75;0.73;;;7.50;92.80;;;;;;5027831;28;20026;-90
2020/12/14 03:30:43;;;;;;;3.03;0.90;;;7.40;92.90;;;;;;5019897;28;20108;-91
2020/12/14 03:33:09;;;;;;;3.40;0.90;;;7.40;93.20;;;;;;5026976;28;20472;-91
2020/12/14 03:35:34;;;;;;;2.95;0.90;;;7.40;93.30;;;;;;5025642;28;20033;-91
2020/12/14 03:38:00;;;;;;;4.65;1.25;;;7.40;93.50;;;;;;5023568;28;20394;-91
2020/12/14 03:40:25;;;;;;;11.45;1.23;;;7.40;93.60;;;;;;5023384;28;20038;-91
2020/12/14 03:42:50;;;;;;;4.82;1.15;;;7.40;93.60;;;;;;5023490;28;20440;-91
2020/12/14 03:45:16;;;;;;;6.15;1.00;;;7.40;93.70;;;;;;5026014;28;20037;-92
2020/12/14 03:47:42;;;;;;;3.20;0.75;;;7.40;93.80;;;;;;5021413;28;20022;-92
2020/12/14 03:50:07;;;;;;;3.47;0.70;;;7.50;93.90;;;;;;5023498;28;20109;-92
2020/12/14 03:52:33;;;;;;;1.27;0.70;;;7.50;93.90;;;;;;5029320;28;20120;-91
2020/12/14 03:54:58;;;;;;;5.45;0.95;;;7.50;93.90;;;;;;5023374;28;20032;-91
2020/12/14 03:57:24;;;;;;;3.20;1.00;;;7.50;94.00;;;;;;5026227;28;20033;-91
2020/12/14 03:59:49;;;;;;;8.35;1.13;;;7.60;94.00;;;;;;5029692;28;20189;-92
2020/12/14 04:02:15;;;;;;;2.20;0.77;;;7.60;94.00;;;;;;5021532;28;20025;-92
2020/12/14 04:04:40;;;;;;;2.88;0.93;;;7.60;94.00;;;;;;5030804;28;20036;-91
2020/12/14 04:07:06;;;;;;;6.05;0.90;;;7.50;94.00;;;;;;5024964;28;20030;-91
2020/12/14 04:09:31;;;;;;;5.70;1.00;;;7.60;94.10;;;;;;5027432;28;20017;-91
2020/12/14 04:11:57;;;;;;;3.88;1.13;;;7.60;94.20;;;;;;5022514;28;20025;-91
2020/12/14 04:14:22;;;;;;;6.30;1.42;;;7.60;94.30;;;;;;5024832;28;20529;-92
2020/12/14 04:16:50;;;;;;;7.10;1.40;;;7.60;94.30;;;;;;5027438;28;20031;-91
2020/12/14 04:19:22;;;;;;;3.08;1.10;;;7.60;94.40;;;;;;5023202;28;20033;-92
2020/12/14 04:21:47;;;;;;;3.65;0.95;;;7.60;94.40;;;;;;5020523;28;20105;-92
2020/12/14 04:24:13;;;;;;;3.15;0.80;;;7.50;94.50;;;;;;5023573;28;20598;-92
2020/12/14 04:26:38;;;;;;;3.33;1.10;;;7.60;94.50;;;;;;5028865;28;20034;-90
2020/12/14 04:29:04;;;;;;;3.40;0.75;;;7.60;94.50;;;;;;5026535;28;20021;-90
2020/12/14 04:31:29;;;;;;;4.95;0.82;;;7.60;94.60;;;;;;5029681;28;20029;-91
2020/12/14 04:33:55;;;;;;;1.20;0.70;;;7.60;94.50;;;;;;5029615;28;20068;-89
2020/12/14 04:36:20;;;;;;;6.05;0.90;;;7.70;94.50;;;;;;5020158;28;20024;-91
2020/12/14 04:38:46;;;;;;;4.75;0.80;;;7.70;94.50;;;;;;5028750;28;20048;-90
2020/12/14 04:41:12;;;;;;;2.75;0.80;;;7.70;94.50;;;;;;5029991;28;20045;-89
2020/12/14 04:43:38;;;;;;;3.58;0.80;;;7.70;94.50;;;;;;5026560;28;20037;-90
2020/12/14 04:46:05;;;;;;;2.45;0.80;;;7.80;94.50;;;;;;5035677;28;20044;-90
2020/12/14 04:48:31;;;;;;;4.55;1.00;;;7.70;94.50;;;;;;5025125;28;20156;-90
2020/12/14 04:50:57;;;;;;;4.63;1.75;;;7.80;94.50;;;;;;5029509;28;20112;-90
2020/12/14 04:53:23;;;;;;;3.85;1.10;;;7.80;94.50;;;;;;5026154;28;20110;-91
2020/12/14 04:55:48;;;;;;;2.58;0.70;;;7.80;94.50;;;;;;5027553;28;20470;-91
2020/12/14 04:58:14;;;;;;;3.72;0.80;;;7.80;94.60;;;;;;5020205;28;20057;-90
2020/12/14 05:00:40;;;;;;;1.40;0.77;;;7.80;94.50;;;;;;5030033;28;20042;-91
2020/12/14 05:03:05;;;;;;;3.58;0.90;;;7.90;94.60;;;;;;5023207;28;20018;-91
2020/12/14 05:05:31;;;;;;;2.95;0.65;;;7.90;94.50;;;;;;5028445;28;20044;-91
2020/12/14 05:07:57;;;;;;;6.43;1.17;;;7.90;94.50;;;;;;5030381;28;20037;-90
2020/12/14 05:10:24;;;;;;;4.95;1.00;;;7.90;94.50;;;;;;5025760;28;20025;-90
2020/12/14 05:12:50;;;;;;;4.22;0.70;;;7.90;94.50;;;;;;5028685;28;20021;-91
2020/12/14 05:15:22;;;;;;;2.47;0.98;;;7.90;94.50;;;;;;5031215;28;20514;-91
2020/12/14 05:18:09;;;;;;;4.47;1.10;;;7.90;94.50;;;;;;5024669;28;20032;-90
2020/12/14 05:20:35;;;;;;;3.88;1.15;;;7.90;94.50;;;;;;5026885;28;20041;-91
2020/12/14 05:23:08;;;;;;;2.95;0.88;;;7.90;94.60;;;;;;5021376;28;20032;-91
2020/12/14 05:25:34;;;;;;;3.17;0.70;;;7.90;94.60;;;;;;5023940;28;20025;-90
2020/12/14 05:28:12;;;;;;;2.67;0.90;;;7.90;94.60;;;;;;5030662;28;20026;-90
2020/12/14 05:30:39;;;;;;;3.67;1.10;;;7.90;94.60;;;;;;5020828;28;20022;-91
2020/12/14 05:33:07;;;;;;;4.28;1.10;;;7.90;94.70;;;;;;5020146;28;20033;-91
2020/12/14 05:35:34;;;;;;;3.90;1.20;;;7.90;94.80;;;;;;5022798;28;20478;-92
2020/12/14 05:38:21;;;;;;;2.78;1.45;;;8.00;94.80;;;;;;5029586;28;20032;-92
2020/12/14 05:40:49;;;;;;;3.45;1.33;;;7.90;94.80;;;;;;5023363;28;20038;-91
2020/12/14 05:43:17;;;;;;;3.63;1.23;;;8.00;94.90;;;;;;5027853;28;20049;-91
2020/12/14 05:45:43;;;;;;;2.50;1.30;;;8.00;95.00;;;;;;5021699;28;20029;-91
2020/12/14 05:48:30;;;;;;;1.98;1.25;;;8.00;95.00;;;;;;5025403;28;20355;-91
2020/12/14 05:51:01;;;;;;;2.45;1.45;;;8.00;94.90;;;;;;5034214;28;20053;-91
2020/12/14 05:53:37;;;;;;;1.98;1.05;;;8.00;95.00;;;;;;5029458;28;20104;-91
2020/12/14 05:56:04;;;;;;;3.00;0.98;;;8.00;95.00;;;;;;5028956;28;20053;-90
2020/12/14 05:58:31;;;;;;;3.45;1.20;;;8.00;95.10;;;;;;5023128;28;20021;-91
2020/12/14 06:00:59;;;;;;;2.78;1.33;;;8.00;95.10;;;;;;5028640;28;20169;-91
2020/12/14 06:03:26;;;;;;;2.67;1.10;;;8.10;95.20;;;;;;5024631;28;20092;-88
2020/12/14 06:06:01;;;;;;;3.50;0.98;;;8.10;95.20;;;;;;5019717;28;20097;-87
2020/12/14 06:08:41;;;;;;;5.78;1.27;;;8.10;95.20;;;;;;5018441;28;20033;-89
2020/12/14 06:11:07;;;;;;;2.75;1.40;;;8.10;95.30;;;;;;5017195;28;20060;-89
2020/12/14 06:13:42;;;;;;;4.53;2.25;;;8.10;95.20;;;;;;5017149;28;20057;-87
2020/12/14 06:16:11;;;;;;;2.00;1.38;;;8.10;95.30;;;;;;5020311;28;20083;-90
2020/12/14 06:18:38;;;;;;;5.47;1.50;;;8.10;95.30;;;;;;5039091;28;20029;-87
2020/12/14 06:21:03;;;;;;;3.90;1.65;;;8.20;95.40;;;;;;5023066;28;20044;-87
2020/12/14 06:23:41;;;;;;;3.15;1.42;;;8.20;95.50;;;;;;5030430;28;20089;-89
2020/12/14 06:26:07;;;;;;;4.07;1.58;;;8.20;95.40;;;;;;5014459;28;20034;-88
2020/12/14 06:28:34;;;;;;;3.72;1.60;;;8.20;95.40;;;;;;5023087;28;20018;-88
2020/12/14 06:31:00;;;;;;;2.83;1.38;;;8.10;95.70;;;;;;5032118;28;20053;-88
2020/12/14 06:33:38;;;;;;;3.60;2.10;;;8.20;95.50;;;;;;5026625;28;20022;-87
2020/12/14 06:36:16;;;;;;;3.22;1.65;;;8.20;95.50;;;;;;5016279;28;20044;-87
2020/12/14 06:38:43;;;;;;;4.13;1.52;;;8.20;95.60;;;;;;5019971;28;20025;-87
2020/12/14 06:41:14;;;;;;;3.63;1.40;;;8.20;95.60;;;;;;5018545;28;20040;-88
2020/12/14 06:43:41;;;;;;;6.82;2.90;;;8.20;95.60;;;;;;5031167;28;20045;-87
2020/12/14 06:46:07;;;;;;;2.63;1.63;;;8.20;95.60;;;;;;5044099;28;20390;-88
2020/12/14 06:48:38;;;;;;;5.03;2.88;;;8.20;95.70;;;;;;5029515;28;20033;-86
2020/12/14 06:51:06;;;;;;;3.95;1.90;;;8.30;95.70;;;;;;5024322;28;20030;-87
2020/12/14 06:53:50;;;;;;;3.78;2.00;;;8.30;95.70;;;;;;5015315;28;20470;-87
2020/12/14 06:56:28;;;;;;;4.50;1.95;;;8.30;95.70;;;;;;5031560;28;20037;-87
2020/12/14 06:58:55;;;;;;;6.28;2.40;;;8.30;95.80;;;;;;5026743;28;20509;-88
2020/12/14 07:01:34;;;;;;;5.93;2.80;;;8.30;95.80;;;;;;5031914;28;20034;-87
2020/12/14 07:04:15;;;;;;;4.60;2.63;;;8.30;95.80;;;;;;5021288;28;20022;-89
2020/12/14 07:06:41;;;;;;;3.63;2.28;;;8.30;95.70;;;;;;5031072;28;20059;-88
2020/12/14 07:09:29;;;;;;;3.45;2.17;;;8.30;95.70;;;;;;5029058;28;20581;-89
2020/12/14 07:12:15;;;;;;;5.55;2.58;;;8.30;95.80;;;;;;5030062;28;20033;-88
2020/12/14 07:14:49;;;;;;;5.78;2.50;;;8.30;95.80;;;;;;5028968;28;20022;-88
2020/12/14 07:17:26;;;;;;;4.68;2.53;;;8.40;95.90;;;;;;5022065;28;20030;-89
2020/12/14 07:19:57;;;;;;;4.25;2.75;;;8.40;95.90;;;;;;5024441;28;20029;-88
2020/12/14 07:22:48;;;;;;;6.05;2.63;;;8.40;95.90;;;;;;5017934;28;20391;-89
2020/12/14 07:25:21;;;;;;;4.28;2.70;;;8.50;95.90;;;;;;5023958;28;20359;-88
2020/12/14 07:27:46;;;;;;;5.22;3.10;;;8.50;96.00;;;;;;5032653;28;20026;-89
2020/12/14 07:30:12;;;;;;;4.88;3.13;;;8.50;96.00;;;;;;5018382;28;20038;-89
2020/12/14 07:32:39;;;;;;;4.38;2.85;;;8.60;96.00;;;;;;5020358;28;20018;-89
2020/12/14 07:35:07;;;;;;;4.95;3.05;;;8.60;96.10;;;;;;5031636;28;20030;-90
2020/12/14 07:37:33;;;;;;;4.85;3.15;;;8.70;96.10;;;;;;5033815;28;20033;-89
2020/12/14 07:39:59;;;;;;;6.22;3.53;;;8.70;96.00;;;;;;5033360;28;20100;-90
2020/12/14 07:42:32;;;;;;;6.35;3.50;;;8.70;96.00;;;;;;5022553;28;20061;-89
2020/12/14 07:45:26;;;;;;;9.60;3.45;;;8.70;96.00;;;;;;5028993;28;20044;-89
2020/12/14 07:47:53;;;;;;;4.55;2.95;;;8.80;96.10;;;;;;5030863;28;20029;-89
2020/12/14 07:50:22;;;;;;;4.90;2.90;;;8.80;96.10;;;;;;5030962;28;20032;-89
2020/12/14 07:52:53;;;;;;;3.55;3.20;;;8.90;96.30;;;;;;5026581;28;20062;-89
2020/12/14 07:55:19;;;;;;;5.05;3.08;;;9.00;96.30;;;;;;5027442;28;20049;-89
2020/12/14 07:57:46;;;;;;;4.75;3.08;;;9.00;96.30;;;;;;5032549;28;20065;-89
2020/12/14 08:00:20;;;;;;;6.13;3.45;;;9.10;96.30;;;;;;5016977;28;20033;-89
2020/12/14 08:02:46;;;;;;;3.83;2.65;;;9.10;96.30;;;;;;5055440;28;20075;-89
2020/12/14 08:05:13;;;;;;;4.07;2.42;;;9.20;96.30;;;;;;5034070;28;20026;-89
2020/12/14 08:07:49;;;;;;;5.10;3.17;;;9.20;96.30;;;;;;5032620;28;20068;-89
2020/12/14 08:10:17;;;;;;;4.95;2.92;;;9.30;96.30;;;;;;5020712;28;20105;-88
2020/12/14 08:12:43;;;;;;;5.03;3.10;;;9.30;96.20;;;;;;5033567;28;20022;-90
2020/12/14 08:15:20;;;;;;;5.65;2.97;;;9.30;96.20;;;;;;5023062;28;20470;-89
2020/12/14 08:17:46;;;;;;;5.00;2.80;;;9.30;96.20;;;;;;5035642;28;20179;-89
2020/12/14 08:20:25;;;;;;;6.95;3.63;;;9.30;96.10;;;;;;5036006;28;20394;-89
2020/12/14 08:22:51;;;;;;;4.07;3.00;;;9.40;96.10;;;;;;5037052;28;20088;-89
2020/12/14 08:25:29;;;;;;;3.65;3.28;;;9.40;96.10;;;;;;5028910;28;20122;-90
2020/12/14 08:28:05;;;;;;;5.05;3.60;;;9.40;96.10;;;;;;5033622;28;20077;-90
2020/12/14 08:30:33;;;;;;;5.78;2.95;;;9.40;96.10;;;;;;5025663;28;20080;-89
2020/12/14 08:33:13;;;;;;;4.63;2.75;;;9.40;96.10;;;;;;5034385;28;20025;-91
2020/12/14 08:35:40;;;;;;;4.38;3.50;;;9.40;96.10;;;;;;5025761;28;20034;-90
2020/12/14 08:38:15;;;;;;;5.07;3.40;;;9.40;96.10;;;;;;5028275;28;20277;-89
2020/12/14 08:41:09;;;;;;;9.02;3.45;;;9.50;96.20;;;;;;5027909;28;20060;-92
2020/12/14 08:43:36;;;;;;;4.75;2.85;;;9.50;96.20;;;;;;5025324;28;20046;-90
2020/12/14 08:46:02;;;;;;;4.50;2.55;;;9.50;96.20;;;;;;5024362;28;20061;-90
2020/12/14 08:48:42;;;;;;;3.65;2.33;;;9.50;96.20;;;;;;5025017;28;20056;-89
2020/12/14 08:51:17;;;;;;;3.22;2.60;;;9.60;96.20;;;;;;5041395;28;20033;-90
2020/12/14 08:53:44;;;;;;;4.93;2.35;;;9.60;96.20;;;;;;5042706;28;20030;-91
2020/12/14 08:56:12;;;;;;;5.25;2.60;;;9.70;96.20;;;;;;5021851;28;20049;-89
2020/12/14 08:58:53;;;;;;;5.78;2.67;;;9.70;96.20;;;;;;5015507;28;20032;-88
2020/12/14 09:01:24;;;;;;;4.82;2.63;;;9.70;96.20;;;;;;5021622;28;20670;-89
2020/12/14 09:03:56;;;;;;;4.22;2.28;;;9.80;96.20;;;;;;5029512;28;20090;-89
2020/12/14 09:06:30;;;;;;;;;;;9.80;96.20;;;;;;5023251;28;20116;-89
2020/12/14 09:09:07;;;;;;;5.43;2.65;;;9.80;96.20;;;;;;5030594;28;19909;-87
2020/12/14 09:11:47;;;;;;;3.03;2.13;;;9.80;96.10;;;;;;5030720;28;20027;-89
2020/12/14 09:14:20;;;;;;;3.22;2.35;;;9.90;96.10;;;;;;5026044;28;20022;-89
2020/12/14 09:16:51;;;;;;;3.20;1.98;;;9.90;96.20;;;;;;5030897;28;20033;-89
2020/12/14 09:19:28;;;;;;;3.25;2.10;;;9.90;96.20;;;;;;5031483;28;20052;-90
2020/12/14 09:21:54;;;;;;;4.95;2.13;;;10.00;96.20;;;;;;5028693;28;20033;-89
2020/12/14 09:24:27;;;;;;;3.00;2.70;;;10.10;96.20;;;;;;5028331;28;20049;-90
2020/12/14 09:27:01;;;;;;;3.80;2.30;;;10.10;96.10;;;;;;5026315;28;20022;-89
2020/12/14 09:29:27;;;;;;;3.97;2.45;;;10.10;96.10;;;;;;5014571;28;20041;-87
2020/12/14 09:31:54;;;;;;;2.83;2.35;;;10.20;96.10;;;;;;5023039;28;20034;-90
2020/12/14 09:34:20;;;;;;;4.47;2.22;;;10.20;96.00;;;;;;5024316;28;20018;-89
2020/12/14 09:36:50;;;;;;;3.47;2.47;;;10.20;96.00;;;;;;5031205;28;20075;-89
2020/12/14 09:39:15;;;;;;;2.85;1.98;;;10.30;95.90;;;;;;5027330;28;20026;-89
2020/12/14 09:41:41;;;;;;;3.40;2.08;;;10.30;95.90;;;;;;5024483;28;20029;-88
2020/12/14 09:44:07;;;;;;;4.20;1.73;;;10.40;95.80;;;;;;5031796;28;20056;-89
2020/12/14 09:46:33;;;;;;;2.45;1.70;;;10.40;95.70;;;;;;5026311;28;20440;-89
2020/12/14 09:48:59;;;;;;;3.35;2.20;;;10.40;95.70;;;;;;5031886;28;20025;-89
2020/12/14 09:51:26;;;;;;;3.25;1.90;;;10.40;95.60;;;;;;5022169;28;20505;-89
2020/12/14 09:53:52;;;;;;;2.53;1.80;;;10.50;95.60;;;;;;5030798;28;20021;-89
2020/12/14 09:56:18;;;;;;;2.60;1.77;;;10.50;95.50;;;;;;5038118;28;20026;-89
2020/12/14 09:58:45;;;;;;;3.25;2.13;;;10.60;95.50;;;;;;5032720;28;20112;-90
2020/12/14 10:01:10;;;;;;;3.20;1.70;;;10.60;95.40;;;;;;5028143;28;20435;-89
2020/12/14 10:03:36;;;;;;;2.80;2.10;;;10.60;95.30;;;;;;5024675;28;20179;-89
2020/12/14 10:06:01;;;;;;;2.47;1.98;;;10.70;95.30;;;;;;5030214;28;20060;-90
2020/12/14 10:08:27;;;;;;;2.13;1.80;;;10.70;95.20;;;;;;5028862;28;20505;-90
2020/12/14 10:10:55;;;;;;;1.60;1.50;;;10.80;95.10;;;;;;5029446;28;20072;-89
2020/12/14 10:13:24;;;;;;;3.35;2.17;;;10.80;95.00;;;;;;5026341;28;20022;-89
2020/12/14 10:15:50;;;;;;;1.92;1.50;;;10.90;94.90;;;;;;5029932;28;20033;-89
2020/12/14 10:18:16;;;;;;;2.75;1.90;;;10.90;94.70;;;;;;5036849;28;20028;-89
2020/12/14 10:20:42;;;;;;;2.33;1.55;;;11.00;94.70;;;;;;5031742;28;20034;-89
2020/12/14 10:23:08;;;;;;;2.10;1.27;;;11.00;94.60;;;;;;5032740;28;20021;-89
2020/12/14 10:25:37;;;;;;;3.67;1.52;;;11.00;94.50;;;;;;5033491;28;20025;-89
2020/12/14 10:28:04;;;;;;;2.47;1.60;;;11.00;94.50;;;;;;5032789;28;20021;-89
2020/12/14 10:30:30;;;;;;;2.60;1.88;;;11.10;94.40;;;;;;5044016;28;20102;-89
2020/12/14 10:32:55;;;;;;;2.70;1.55;;;11.10;94.60;;;;;;5027276;28;20032;-89
2020/12/14 10:35:21;;;;;;;2.83;1.73;;;11.10;94.30;;;;;;5037026;28;20033;-89
2020/12/14 10:37:49;;;;;;;3.33;1.60;;;11.10;94.50;;;;;;5032110;28;20033;-89
2020/12/14 10:40:14;;;;;;;2.83;1.70;;;11.10;94.10;;;;;;5032511;28;20042;-90
2020/12/14 10:42:41;;;;;;;2.80;1.50;;;11.20;94.10;;;;;;5029862;28;20033;-88
2020/12/14 10:45:07;;;;;;;2.45;1.88;;;11.20;94.30;;;;;;5032995;28;20510;-89
2020/12/14 10:47:33;;;;;;;2.85;1.88;;;11.20;94.00;;;;;;5033278;28;20482;-89
2020/12/14 10:49:58;;;;;;;3.45;1.70;;;11.20;93.90;;;;;;5030061;28;20069;-89
2020/12/14 10:52:24;;;;;;;4.47;1.77;;;11.20;93.90;;;;;;5022184;28;20049;-89
2020/12/14 10:54:50;;;;;;;4.68;1.73;;;11.20;93.80;;;;;;5027325;28;20512;-90
2020/12/14 10:57:19;;;;;;;3.45;1.77;;;11.20;93.80;;;;;;5032894;28;20018;-91
2020/12/14 10:59:45;;;;;;;2.47;2.05;;;11.20;93.70;;;;;;5030677;28;20047;-90
2020/12/14 11:02:11;;;;;;;2.40;1.77;;;11.20;93.70;;;;;;5046924;28;20436;-89
2020/12/14 11:04:38;;;;;;;4.80;2.13;;;11.20;93.70;;;;;;5048720;28;20036;-89
2020/12/14 11:07:06;;;;;;;3.75;2.03;;;11.20;93.70;;;;;;5035306;28;20028;-89
2020/12/14 11:09:32;;;;;;;5.45;1.65;;;11.20;93.60;;;;;;5023522;28;20070;-89
2020/12/14 11:11:57;;;;;;;2.20;1.65;;;11.20;93.60;;;;;;5035931;28;20029;-89
2020/12/14 11:14:23;;;;;;;2.72;1.80;;;11.20;93.60;;;;;;5032362;28;20025;-89
2020/12/14 11:16:48;;;;;;;2.13;1.90;;;11.20;93.70;;;;;;5024767;28;20021;-88
2020/12/14 11:19:14;;;;;;;3.15;2.17;;;11.20;93.70;;;;;;5013103;28;20033;-89
2020/12/14 11:21:39;;;;;;;2.95;2.00;;;11.10;93.60;;;;;;5018506;28;20083;-89
2020/12/14 11:24:06;;;;;;;4.35;2.30;;;11.20;93.60;;;;;;5026099;28;20390;-89
2020/12/14 11:26:31;;;;;;;2.85;2.20;;;11.20;93.60;;;;;;5023412;28;20757;-88
2020/12/14 11:28:57;;;;;;;4.30;2.00;;;11.20;93.50;;;;;;5017359;28;20056;-88
2020/12/14 11:31:22;;;;;;;5.40;2.92;;;11.20;93.50;;;;;;5019749;28;20029;-88
2020/12/14 11:33:48;;;;;;;2.35;1.90;;;11.20;93.50;;;;;;5016017;28;20110;-88
2020/12/14 11:36:13;;;;;;;3.95;2.45;;;11.20;93.50;;;;;;5028040;28;20022;-88
2020/12/14 11:38:39;;;;;;;3.67;2.45;;;11.20;93.50;;;;;;5035898;28;20026;-88
2020/12/14 11:41:04;;;;;;;2.70;2.13;;;11.20;93.50;;;;;;5033962;28;20045;-89
2020/12/14 11:43:31;;;;;;;4.82;2.47;;;11.20;93.40;;;;;;5051316;28;20124;-88
2020/12/14 11:45:56;;;;;;;2.63;2.30;;;11.20;93.40;;;;;;5020386;28;20072;-90
2020/12/14 11:48:22;;;;;;;3.67;2.03;;;11.20;93.40;;;;;;5023005;28;20485;-89
2020/12/14 11:50:49;;;;;;;2.95;2.00;;;11.20;93.40;;;;;;5034563;28;20017;-88
2020/12/14 11:53:14;;;;;;;3.22;2.33;;;11.20;93.40;;;;;;5035896;28;20065;-88
2020/12/14 11:55:40;;;;;;;6.18;2.58;;;11.20;93.40;;;;;;5036172;28;20040;-88
2020/12/14 11:58:06;;;;;;;2.75;1.92;;;11.20;93.40;;;;;;5036022;28;20047;-89
2020/12/14 12:00:32;;;;;;;3.63;2.25;;;11.30;93.40;;;;;;5035382;28;20128;-90
2020/12/14 12:02:58;;;;;;;4.28;1.85;;;11.30;93.50;;;;;;5037050;28;20025;-89
2020/12/14 12:05:24;;;;;;;4.15;1.50;;;11.30;93.20;;;;;;5034816;28;20021;-89
2020/12/14 12:07:49;;;;;;;2.65;1.55;;;11.30;93.20;;;;;;5036023;28;20032;-88
2020/12/14 12:10:16;;;;;;;6.00;1.95;;;11.30;92.90;;;;;;5034598;28;20033;-88
2020/12/14 12:12:41;;;;;;;5.40;1.80;;;11.40;93.00;;;;;;5022419;28;20030;-88
2020/12/14 12:15:07;;;;;;;2.83;1.17;;;11.40;93.00;;;;;;5039324;28;20072;-88
2020/12/14 12:17:33;;;;;;;2.55;1.33;;;11.40;92.90;;;;;;5035743;28;20036;-89
2020/12/14 12:19:58;;;;;;;3.05;1.77;;;11.50;92.90;;;;;;5035078;28;20033;-89
2020/12/14 12:22:24;;;;;;;3.10;1.30;;;11.50;92.80;;;;;;5035593;28;20025;-89
2020/12/14 12:24:50;;;;;;;3.60;1.17;;;11.50;92.80;;;;;;5035789;28;20083;-90
2020/12/14 12:27:15;;;;;;;3.85;1.08;;;11.60;92.70;;;;;;5037444;28;20061;-90
2020/12/14 12:29:41;;;;;;;2.22;0.80;;;11.60;92.40;;;;;;5036890;28;20021;-89
2020/12/14 12:32:07;;;;;;;3.25;0.98;;;11.50;92.30;;;;;;5037924;28;20108;-89
2020/12/14 12:34:33;;;;;;;3.15;1.30;;;11.50;92.30;;;;;;5034116;28;20048;-89
2020/12/14 12:37:00;;;;;;;2.95;0.90;;;11.40;92.40;;;;;;5016914;28;20114;-89
2020/12/14 12:39:26;;;;;;;4.07;1.17;;;11.40;92.40;;;;;;5035517;28;20033;-89
2020/12/14 12:41:53;;;;;;;3.83;0.95;;;11.40;92.30;;;;;;5028022;28;20018;-88
2020/12/14 12:44:19;;;;;;;4.60;1.25;;;11.40;92.20;;;;;;5035373;28;20050;-88
2020/12/14 12:46:45;;;;;;;3.42;1.10;;;11.30;92.30;;;;;;5035141;28;20095;-89
2020/12/14 12:49:11;;;;;;;4.43;1.00;;;11.30;92.40;;;;;;5035450;28;20025;-89
2020/12/14 12:51:37;;;;;;;2.95;0.95;;;11.40;92.40;;;;;;5034250;28;20405;-90
2020/12/14 12:54:03;;;;;;;3.55;1.10;;;11.40;92.40;;;;;;5035084;28;20087;-89
2020/12/14 12:56:29;;;;;;;4.82;0.80;;;11.50;92.40;;;;;;5034867;28;20536;-89
2020/12/14 12:58:55;;;;;;;2.17;1.00;;;11.60;92.40;;;;;;5034843;28;20033;-89